Main page
METAR-TAF:

METAR-TAF

Airports :

Aurillac – Tronquières Airport

Aurillac, France

latitude: 44-53N, longitude: 002-25E, elevation: 639 m

Current weather observation

The report was made 30 minutes ago, at 00:00 UTC
Wind 3 kt from the Northwest, varying between West and North
Temperature 17°C
Humidity 94%
Pressure 1020 hPa
Visibility 10 km or more
Broken clouds at a height of 1100 ft
Overcast at a height of 2300 ft

METAR: LFLW 140000Z AUTO 31003KT 260V010 9999 BKN011 OVC023 17/16 Q1020

Time: 02:30 (00:30 UTC)

Forecast

The report was made 10 hours and 30 minutes ago, at 14:00 UTC
Forecast valid from 13 at 15 UTC to 13 at 24 UTC
Wind 10 kt from the West
Visibility 10 km or more
Broken clouds at a height of 3500 ft
Temporary
from 13 at 15 UTC to 13 at 17 UTC
Scattered clouds at a height of 4000 ft, Towering cumulus.

TAF: LFLW 131400Z 1315/1324 28010KT 9999 BKN035 TEMPO 1315/1317 SCT040TCU

Weather observations and forecasts of more than 4000 airports (METAR and TAF reports).

The available stations are represented by yellow and red dots on the map.

Hover mouse over dot to see the name of the station.

Then click to see weather observations and forecasts.

To change the map : click on the green buttons with a black cross to zoom in, on the green button with a dash to zoom out, or on the green arrows for adjacent maps.


METAR-TAF: